Airfield :







YOU CAN JOIN US ON...

 
LOGIN :

Register | Disclaimer

   EN    FR    IT 

 









Legend :    VFR   Marginal VFR   IFR   Intensive IFR   Very Intensive IFR
Visi :
Ceiling :
>= 8 km
>= 3000ft
5 to 8 km
1000 to 3000 ft
1500m to 5 km
500 to 1000 ft
800 to 1500m
200 to 500 ft
< 800m
< 200 ft
Symbols :   Thunderstorms  Fog  Heavy snow  Heavy precipitations  Wind > 20 kt







- Airport Elevation : 555 ft


KORE - Orange Municipal

CURRENT METAR :
  • 161352Z AUTO 34014KT 10SM CLR 17/08 A3012 RMK AO2 SLP199 T01670078

EXPIRED METARs :
  • 161252Z AUTO 36006KT 10SM CLR 17/10 A3011 RMK AO2 SLP196 T01670100
  • 161214Z AUTO 00000KT 6SM BR SCT002 14/12 A3011 RMK AO2 T01390122
  • 161152Z AUTO 00000KT 1/4SM FG VV002 12/12 A3011 RMK AO2 SLP196 T01220117 10144 20117 51014

TAF N/A
No reported NOTAMs for that airfield.



MET'MAP, your aeronautical weather chart ! - Copyright ORBIFLY December 2007 - Disclaimer

ORBIFLY MET'MAP TEAM :

Programming & Development : Alexandra Zaïnal
Concept & Development : Baudouin d'Aumeries
Co-Development & Prog : Marc-Olivier Méhu
Technical & hardware support : Manuel Goepfert

Contact : metmap@orbifly.com




SOURCES & CREDITS :

   NOAA